sensor_id;sensor_type;location;lat;lon;timestamp;P1;durP1;ratioP1;P2;durP2;ratioP2
20154;SDS011;10238;49.556;10.956;2022-08-19T00:00:24;22.70;;;15.68;;
20154;SDS011;10238;49.556;10.956;2022-08-19T00:03:15;19.55;;;16.80;;
20154;SDS011;10238;49.556;10.956;2022-08-19T00:06:06;20.58;;;15.27;;
20154;SDS011;10238;49.556;10.956;2022-08-19T00:08:56;17.42;;;15.45;;
20154;SDS011;10238;49.556;10.956;2022-08-19T00:11:47;18.58;;;14.70;;
20154;SDS011;10238;49.556;10.956;2022-08-19T00:14:38;22.45;;;16.27;;
20154;SDS011;10238;49.556;10.956;2022-08-19T00:17:29;19.08;;;17.02;;
20154;SDS011;10238;49.556;10.956;2022-08-19T00:20:19;18.95;;;15.98;;
20154;SDS011;10238;49.556;10.956;2022-08-19T00:23:09;22.85;;;17.20;;
20154;SDS011;10238;49.556;10.956;2022-08-19T00:25:59;20.13;;;16.13;;
20154;SDS011;10238;49.556;10.956;2022-08-19T00:28:48;18.00;;;15.13;;
20154;SDS011;10238;49.556;10.956;2022-08-19T00:31:38;19.67;;;16.67;;
20154;SDS011;10238;49.556;10.956;2022-08-19T00:34:30;19.13;;;15.07;;
20154;SDS011;10238;49.556;10.956;2022-08-19T00:37:19;18.42;;;16.23;;
20154;SDS011;10238;49.556;10.956;2022-08-19T00:40:11;18.17;;;14.35;;
20154;SDS011;10238;49.556;10.956;2022-08-19T00:43:01;20.92;;;17.25;;
20154;SDS011;10238;49.556;10.956;2022-08-19T00:45:58;18.58;;;16.13;;
20154;SDS011;10238;49.556;10.956;2022-08-19T00:48:48;22.00;;;17.60;;
20154;SDS011;10238;49.556;10.956;2022-08-19T00:51:39;20.65;;;17.48;;
20154;SDS011;10238;49.556;10.956;2022-08-19T00:54:30;21.98;;;17.48;;
20154;SDS011;10238;49.556;10.956;2022-08-19T00:57:22;19.40;;;17.00;;
20154;SDS011;10238;49.556;10.956;2022-08-19T01:00:17;18.77;;;15.00;;
20154;SDS011;10238;49.556;10.956;2022-08-19T01:03:08;19.00;;;16.02;;
20154;SDS011;10238;49.556;10.956;2022-08-19T01:06:05;20.65;;;17.83;;
20154;SDS011;10238;49.556;10.956;2022-08-19T01:08:57;21.05;;;17.25;;
20154;SDS011;10238;49.556;10.956;2022-08-19T01:11:47;22.05;;;18.92;;
20154;SDS011;10238;49.556;10.956;2022-08-19T01:14:37;21.85;;;17.65;;
20154;SDS011;10238;49.556;10.956;2022-08-19T01:17:28;19.98;;;17.10;;
20154;SDS011;10238;49.556;10.956;2022-08-19T01:20:20;18.95;;;15.93;;
20154;SDS011;10238;49.556;10.956;2022-08-19T01:23:14;20.42;;;17.40;;
20154;SDS011;10238;49.556;10.956;2022-08-19T01:26:03;20.08;;;16.85;;
20154;SDS011;10238;49.556;10.956;2022-08-19T01:28:55;19.15;;;16.15;;
20154;SDS011;10238;49.556;10.956;2022-08-19T01:31:48;23.23;;;17.63;;
20154;SDS011;10238;49.556;10.956;2022-08-19T01:34:39;18.20;;;15.48;;
20154;SDS011;10238;49.556;10.956;2022-08-19T01:37:41;22.70;;;18.20;;
20154;SDS011;10238;49.556;10.956;2022-08-19T01:40:37;25.23;;;19.17;;
20154;SDS011;10238;49.556;10.956;2022-08-19T01:43:29;23.33;;;18.25;;
20154;SDS011;10238;49.556;10.956;2022-08-19T01:46:18;23.50;;;18.85;;
20154;SDS011;10238;49.556;10.956;2022-08-19T01:52:00;25.75;;;20.13;;
20154;SDS011;10238;49.556;10.956;2022-08-19T01:54:53;25.15;;;18.90;;
20154;SDS011;10238;49.556;10.956;2022-08-19T01:57:47;24.60;;;18.43;;
20154;SDS011;10238;49.556;10.956;2022-08-19T02:00:42;25.08;;;19.08;;
20154;SDS011;10238;49.556;10.956;2022-08-19T02:03:32;23.30;;;19.50;;
20154;SDS011;10238;49.556;10.956;2022-08-19T02:06:23;27.77;;;20.17;;
20154;SDS011;10238;49.556;10.956;2022-08-19T02:09:13;25.50;;;20.38;;
20154;SDS011;10238;49.556;10.956;2022-08-19T02:12:03;27.95;;;21.08;;
20154;SDS011;10238;49.556;10.956;2022-08-19T02:14:57;26.83;;;21.33;;
20154;SDS011;10238;49.556;10.956;2022-08-19T02:17:48;27.15;;;20.70;;
20154;SDS011;10238;49.556;10.956;2022-08-19T02:20:38;26.98;;;21.17;;
20154;SDS011;10238;49.556;10.956;2022-08-19T02:23:30;27.08;;;20.70;;
20154;SDS011;10238;49.556;10.956;2022-08-19T02:26:20;28.08;;;21.40;;
20154;SDS011;10238;49.556;10.956;2022-08-19T02:29:10;27.60;;;21.85;;
20154;SDS011;10238;49.556;10.956;2022-08-19T02:32:01;25.55;;;20.35;;
20154;SDS011;10238;49.556;10.956;2022-08-19T02:34:51;23.67;;;19.85;;
20154;SDS011;10238;49.556;10.956;2022-08-19T02:37:41;24.80;;;19.48;;
20154;SDS011;10238;49.556;10.956;2022-08-19T02:40:49;25.08;;;20.52;;
20154;SDS011;10238;49.556;10.956;2022-08-19T02:43:43;31.47;;;21.23;;
20154;SDS011;10238;49.556;10.956;2022-08-19T02:46:54;24.52;;;19.00;;
20154;SDS011;10238;49.556;10.956;2022-08-19T02:49:44;26.23;;;20.30;;
20154;SDS011;10238;49.556;10.956;2022-08-19T02:52:36;30.10;;;21.52;;
20154;SDS011;10238;49.556;10.956;2022-08-19T02:55:25;30.52;;;21.80;;
20154;SDS011;10238;49.556;10.956;2022-08-19T02:58:15;28.52;;;21.75;;
20154;SDS011;10238;49.556;10.956;2022-08-19T03:01:05;28.25;;;21.70;;
20154;SDS011;10238;49.556;10.956;2022-08-19T03:03:55;27.63;;;20.73;;
20154;SDS011;10238;49.556;10.956;2022-08-19T03:06:51;31.98;;;22.27;;
20154;SDS011;10238;49.556;10.956;2022-08-19T03:09:47;30.27;;;22.27;;
20154;SDS011;10238;49.556;10.956;2022-08-19T03:12:36;29.40;;;22.13;;
20154;SDS011;10238;49.556;10.956;2022-08-19T03:15:27;26.77;;;21.17;;
20154;SDS011;10238;49.556;10.956;2022-08-19T03:18:17;29.30;;;21.60;;
20154;SDS011;10238;49.556;10.956;2022-08-19T03:21:09;25.98;;;21.08;;
20154;SDS011;10238;49.556;10.956;2022-08-19T03:24:06;31.10;;;22.35;;
20154;SDS011;10238;49.556;10.956;2022-08-19T03:26:57;31.08;;;23.30;;
20154;SDS011;10238;49.556;10.956;2022-08-19T03:29:47;29.13;;;21.77;;
20154;SDS011;10238;49.556;10.956;2022-08-19T03:32:38;27.58;;;21.25;;
20154;SDS011;10238;49.556;10.956;2022-08-19T03:35:31;32.38;;;23.25;;
20154;SDS011;10238;49.556;10.956;2022-08-19T03:38:23;30.65;;;21.63;;
20154;SDS011;10238;49.556;10.956;2022-08-19T03:41:14;31.05;;;23.10;;
20154;SDS011;10238;49.556;10.956;2022-08-19T03:44:07;30.48;;;21.45;;
20154;SDS011;10238;49.556;10.956;2022-08-19T03:47:03;36.47;;;22.23;;
20154;SDS011;10238;49.556;10.956;2022-08-19T03:49:53;31.38;;;22.63;;
20154;SDS011;10238;49.556;10.956;2022-08-19T03:52:42;34.30;;;24.02;;
20154;SDS011;10238;49.556;10.956;2022-08-19T03:55:39;31.70;;;22.88;;
20154;SDS011;10238;49.556;10.956;2022-08-19T03:58:30;29.65;;;21.83;;
20154;SDS011;10238;49.556;10.956;2022-08-19T04:01:21;33.00;;;22.63;;
20154;SDS011;10238;49.556;10.956;2022-08-19T04:04:22;31.30;;;23.17;;
20154;SDS011;10238;49.556;10.956;2022-08-19T04:07:15;30.63;;;22.98;;
20154;SDS011;10238;49.556;10.956;2022-08-19T04:10:08;31.65;;;22.95;;
20154;SDS011;10238;49.556;10.956;2022-08-19T04:13:00;33.67;;;23.42;;
20154;SDS011;10238;49.556;10.956;2022-08-19T04:15:52;29.30;;;21.38;;
20154;SDS011;10238;49.556;10.956;2022-08-19T04:18:42;31.17;;;21.92;;
20154;SDS011;10238;49.556;10.956;2022-08-19T04:21:32;32.97;;;23.20;;
20154;SDS011;10238;49.556;10.956;2022-08-19T04:24:25;32.33;;;22.90;;
20154;SDS011;10238;49.556;10.956;2022-08-19T04:32:07;34.30;;;23.77;;
20154;SDS011;10238;49.556;10.956;2022-08-19T04:34:57;31.83;;;22.65;;
20154;SDS011;10238;49.556;10.956;2022-08-19T04:38:30;31.60;;;22.35;;
20154;SDS011;10238;49.556;10.956;2022-08-19T04:41:19;34.53;;;24.17;;
20154;SDS011;10238;49.556;10.956;2022-08-19T04:44:26;32.85;;;21.63;;
20154;SDS011;10238;49.556;10.956;2022-08-19T04:47:20;34.25;;;23.13;;
20154;SDS011;10238;49.556;10.956;2022-08-19T04:50:33;34.85;;;23.13;;
20154;SDS011;10238;49.556;10.956;2022-08-19T04:53:24;30.35;;;20.88;;
20154;SDS011;10238;49.556;10.956;2022-08-19T04:56:24;36.53;;;23.35;;
20154;SDS011;10238;49.556;10.956;2022-08-19T04:59:14;28.83;;;21.40;;
20154;SDS011;10238;49.556;10.956;2022-08-19T05:02:06;36.65;;;24.40;;
20154;SDS011;10238;49.556;10.956;2022-08-19T05:04:58;31.77;;;20.65;;
20154;SDS011;10238;49.556;10.956;2022-08-19T05:07:48;27.95;;;21.25;;
20154;SDS011;10238;49.556;10.956;2022-08-19T05:10:39;29.73;;;21.02;;
20154;SDS011;10238;49.556;10.956;2022-08-19T05:13:29;28.08;;;19.33;;
20154;SDS011;10238;49.556;10.956;2022-08-19T05:16:21;29.02;;;21.15;;
20154;SDS011;10238;49.556;10.956;2022-08-19T05:19:13;30.77;;;22.03;;
20154;SDS011;10238;49.556;10.956;2022-08-19T05:22:21;25.05;;;18.73;;
20154;SDS011;10238;49.556;10.956;2022-08-19T05:25:22;25.13;;;18.73;;
20154;SDS011;10238;49.556;10.956;2022-08-19T05:28:12;34.80;;;22.63;;
20154;SDS011;10238;49.556;10.956;2022-08-19T05:31:01;28.30;;;20.65;;
20154;SDS011;10238;49.556;10.956;2022-08-19T05:33:51;28.05;;;18.88;;
20154;SDS011;10238;49.556;10.956;2022-08-19T05:36:42;33.92;;;23.58;;
20154;SDS011;10238;49.556;10.956;2022-08-19T05:39:35;34.67;;;23.83;;
20154;SDS011;10238;49.556;10.956;2022-08-19T05:42:27;21.70;;;16.70;;
20154;SDS011;10238;49.556;10.956;2022-08-19T05:45:17;26.40;;;18.98;;
20154;SDS011;10238;49.556;10.956;2022-08-19T05:48:07;28.02;;;19.33;;
20154;SDS011;10238;49.556;10.956;2022-08-19T05:51:02;29.38;;;20.50;;
20154;SDS011;10238;49.556;10.956;2022-08-19T05:53:54;29.20;;;21.85;;
20154;SDS011;10238;49.556;10.956;2022-08-19T05:56:44;33.33;;;21.95;;
20154;SDS011;10238;49.556;10.956;2022-08-19T05:59:35;29.50;;;20.33;;
20154;SDS011;10238;49.556;10.956;2022-08-19T06:02:25;29.85;;;20.20;;
20154;SDS011;10238;49.556;10.956;2022-08-19T06:05:15;28.33;;;20.92;;
20154;SDS011;10238;49.556;10.956;2022-08-19T06:08:04;29.75;;;21.50;;
20154;SDS011;10238;49.556;10.956;2022-08-19T06:10:54;33.65;;;23.90;;
20154;SDS011;10238;49.556;10.956;2022-08-19T06:13:46;34.15;;;23.13;;
20154;SDS011;10238;49.556;10.956;2022-08-19T06:16:45;32.55;;;23.10;;
20154;SDS011;10238;49.556;10.956;2022-08-19T06:19:35;28.63;;;21.08;;
20154;SDS011;10238;49.556;10.956;2022-08-19T06:22:27;34.33;;;24.38;;
20154;SDS011;10238;49.556;10.956;2022-08-19T06:25:17;32.35;;;23.45;;
20154;SDS011;10238;49.556;10.956;2022-08-19T06:28:06;31.98;;;23.73;;
20154;SDS011;10238;49.556;10.956;2022-08-19T06:31:06;27.55;;;22.23;;
20154;SDS011;10238;49.556;10.956;2022-08-19T06:33:56;27.75;;;21.00;;
20154;SDS011;10238;49.556;10.956;2022-08-19T06:36:46;26.58;;;20.48;;
20154;SDS011;10238;49.556;10.956;2022-08-19T06:42:29;24.90;;;20.15;;
20154;SDS011;10238;49.556;10.956;2022-08-19T06:45:21;26.92;;;20.52;;
20154;SDS011;10238;49.556;10.956;2022-08-19T06:48:23;27.27;;;21.08;;
20154;SDS011;10238;49.556;10.956;2022-08-19T06:51:14;30.00;;;21.98;;
20154;SDS011;10238;49.556;10.956;2022-08-19T06:54:07;26.65;;;20.92;;
20154;SDS011;10238;49.556;10.956;2022-08-19T06:57:06;27.35;;;20.77;;
20154;SDS011;10238;49.556;10.956;2022-08-19T07:00:01;29.25;;;19.60;;
20154;SDS011;10238;49.556;10.956;2022-08-19T07:02:55;28.65;;;20.70;;
20154;SDS011;10238;49.556;10.956;2022-08-19T07:05:52;32.75;;;23.48;;
20154;SDS011;10238;49.556;10.956;2022-08-19T07:08:41;31.95;;;23.25;;
20154;SDS011;10238;49.556;10.956;2022-08-19T07:11:31;34.33;;;22.75;;
20154;SDS011;10238;49.556;10.956;2022-08-19T07:14:21;32.50;;;23.90;;
20154;SDS011;10238;49.556;10.956;2022-08-19T07:17:13;31.08;;;23.90;;
20154;SDS011;10238;49.556;10.956;2022-08-19T07:20:06;33.05;;;24.38;;
20154;SDS011;10238;49.556;10.956;2022-08-19T07:23:01;31.08;;;24.27;;
20154;SDS011;10238;49.556;10.956;2022-08-19T07:25:53;31.20;;;24.33;;
20154;SDS011;10238;49.556;10.956;2022-08-19T07:28:44;33.70;;;24.67;;
20154;SDS011;10238;49.556;10.956;2022-08-19T07:31:39;33.65;;;28.17;;
20154;SDS011;10238;49.556;10.956;2022-08-19T07:34:30;33.58;;;26.05;;
20154;SDS011;10238;49.556;10.956;2022-08-19T07:37:26;33.05;;;25.08;;
20154;SDS011;10238;49.556;10.956;2022-08-19T07:40:21;31.50;;;25.48;;
20154;SDS011;10238;49.556;10.956;2022-08-19T07:43:12;31.38;;;23.63;;
20154;SDS011;10238;49.556;10.956;2022-08-19T07:46:04;31.53;;;26.17;;
20154;SDS011;10238;49.556;10.956;2022-08-19T07:49:00;34.28;;;27.00;;
20154;SDS011;10238;49.556;10.956;2022-08-19T07:52:04;34.72;;;31.05;;
20154;SDS011;10238;49.556;10.956;2022-08-19T07:54:59;32.80;;;28.60;;
20154;SDS011;10238;49.556;10.956;2022-08-19T07:58:18;37.33;;;33.70;;
20154;SDS011;10238;49.556;10.956;2022-08-19T08:01:10;37.67;;;34.05;;
20154;SDS011;10238;49.556;10.956;2022-08-19T08:04:03;41.83;;;37.80;;
20154;SDS011;10238;49.556;10.956;2022-08-19T08:07:10;41.33;;;37.53;;
20154;SDS011;10238;49.556;10.956;2022-08-19T08:10:18;41.83;;;37.53;;
20154;SDS011;10238;49.556;10.956;2022-08-19T08:16:01;40.03;;;36.22;;
20154;SDS011;10238;49.556;10.956;2022-08-19T08:18:56;44.10;;;39.67;;
20154;SDS011;10238;49.556;10.956;2022-08-19T08:21:50;40.75;;;36.75;;
20154;SDS011;10238;49.556;10.956;2022-08-19T08:24:40;37.63;;;33.90;;
20154;SDS011;10238;49.556;10.956;2022-08-19T08:27:30;43.45;;;39.55;;
20154;SDS011;10238;49.556;10.956;2022-08-19T08:30:20;45.17;;;41.30;;
20154;SDS011;10238;49.556;10.956;2022-08-19T08:33:19;33.53;;;29.08;;
20154;SDS011;10238;49.556;10.956;2022-08-19T08:36:20;44.92;;;40.67;;
20154;SDS011;10238;49.556;10.956;2022-08-19T08:39:12;42.40;;;38.13;;
20154;SDS011;10238;49.556;10.956;2022-08-19T08:42:05;36.75;;;29.27;;
20154;SDS011;10238;49.556;10.956;2022-08-19T08:45:05;34.33;;;31.08;;
20154;SDS011;10238;49.556;10.956;2022-08-19T08:48:04;32.50;;;29.08;;
20154;SDS011;10238;49.556;10.956;2022-08-19T08:51:12;31.02;;;27.75;;
20154;SDS011;10238;49.556;10.956;2022-08-19T08:54:10;35.58;;;31.50;;
20154;SDS011;10238;49.556;10.956;2022-08-19T08:57:04;27.42;;;24.52;;
20154;SDS011;10238;49.556;10.956;2022-08-19T09:00:05;33.88;;;30.58;;
20154;SDS011;10238;49.556;10.956;2022-08-19T09:03:03;30.58;;;25.73;;
20154;SDS011;10238;49.556;10.956;2022-08-19T09:05:59;24.05;;;20.92;;
20154;SDS011;10238;49.556;10.956;2022-08-19T09:09:03;25.02;;;21.92;;
20154;SDS011;10238;49.556;10.956;2022-08-19T09:12:04;24.55;;;19.17;;
20154;SDS011;10238;49.556;10.956;2022-08-19T09:15:13;30.10;;;19.02;;
20154;SDS011;10238;49.556;10.956;2022-08-19T09:18:19;26.23;;;18.58;;
20154;SDS011;10238;49.556;10.956;2022-08-19T09:21:09;25.30;;;17.48;;
20154;SDS011;10238;49.556;10.956;2022-08-19T09:23:59;22.58;;;16.38;;
20154;SDS011;10238;49.556;10.956;2022-08-19T09:26:50;22.27;;;16.95;;
20154;SDS011;10238;49.556;10.956;2022-08-19T09:29:39;23.20;;;16.50;;
20154;SDS011;10238;49.556;10.956;2022-08-19T09:32:29;23.02;;;16.90;;
20154;SDS011;10238;49.556;10.956;2022-08-19T09:35:19;23.58;;;15.98;;
20154;SDS011;10238;49.556;10.956;2022-08-19T09:38:10;21.98;;;16.42;;
20154;SDS011;10238;49.556;10.956;2022-08-19T09:41:04;23.75;;;16.92;;
20154;SDS011;10238;49.556;10.956;2022-08-19T09:43:56;21.10;;;16.70;;
20154;SDS011;10238;49.556;10.956;2022-08-19T09:46:47;22.42;;;17.08;;
20154;SDS011;10238;49.556;10.956;2022-08-19T09:49:36;20.02;;;15.77;;
20154;SDS011;10238;49.556;10.956;2022-08-19T09:52:26;21.05;;;16.50;;
20154;SDS011;10238;49.556;10.956;2022-08-19T09:55:19;20.83;;;14.73;;
20154;SDS011;10238;49.556;10.956;2022-08-19T09:58:12;27.05;;;15.60;;
20154;SDS011;10238;49.556;10.956;2022-08-19T10:01:04;19.90;;;15.45;;
20154;SDS011;10238;49.556;10.956;2022-08-19T10:03:56;20.20;;;16.42;;
20154;SDS011;10238;49.556;10.956;2022-08-19T10:06:55;20.98;;;14.98;;
20154;SDS011;10238;49.556;10.956;2022-08-19T10:09:46;22.98;;;16.10;;
20154;SDS011;10238;49.556;10.956;2022-08-19T10:12:35;17.45;;;13.80;;
20154;SDS011;10238;49.556;10.956;2022-08-19T10:15:26;18.10;;;14.32;;
20154;SDS011;10238;49.556;10.956;2022-08-19T10:18:16;18.88;;;15.23;;
20154;SDS011;10238;49.556;10.956;2022-08-19T10:21:08;18.63;;;14.73;;
20154;SDS011;10238;49.556;10.956;2022-08-19T10:24:03;20.27;;;15.05;;
20154;SDS011;10238;49.556;10.956;2022-08-19T10:26:56;16.23;;;13.50;;
20154;SDS011;10238;49.556;10.956;2022-08-19T10:29:47;17.27;;;13.90;;
20154;SDS011;10238;49.556;10.956;2022-08-19T10:32:37;17.98;;;13.68;;
20154;SDS011;10238;49.556;10.956;2022-08-19T10:35:32;17.92;;;14.27;;
20154;SDS011;10238;49.556;10.956;2022-08-19T10:38:43;18.23;;;14.98;;
20154;SDS011;10238;49.556;10.956;2022-08-19T10:41:39;19.08;;;14.65;;
20154;SDS011;10238;49.556;10.956;2022-08-19T10:44:31;16.48;;;13.63;;
20154;SDS011;10238;49.556;10.956;2022-08-19T10:47:22;18.65;;;14.45;;
20154;SDS011;10238;49.556;10.956;2022-08-19T10:50:19;20.98;;;14.70;;
20154;SDS011;10238;49.556;10.956;2022-08-19T10:53:27;20.50;;;14.30;;
20154;SDS011;10238;49.556;10.956;2022-08-19T10:56:16;19.10;;;13.52;;
20154;SDS011;10238;49.556;10.956;2022-08-19T10:59:24;17.55;;;15.65;;
20154;SDS011;10238;49.556;10.956;2022-08-19T11:02:22;17.90;;;13.82;;
20154;SDS011;10238;49.556;10.956;2022-08-19T11:05:12;15.63;;;12.63;;
20154;SDS011;10238;49.556;10.956;2022-08-19T11:08:06;14.52;;;12.85;;
20154;SDS011;10238;49.556;10.956;2022-08-19T11:11:10;15.02;;;13.02;;
20154;SDS011;10238;49.556;10.956;2022-08-19T11:14:00;16.13;;;12.98;;
20154;SDS011;10238;49.556;10.956;2022-08-19T11:16:50;17.70;;;13.30;;
20154;SDS011;10238;49.556;10.956;2022-08-19T11:19:42;18.67;;;15.15;;
20154;SDS011;10238;49.556;10.956;2022-08-19T11:22:32;15.25;;;13.70;;
20154;SDS011;10238;49.556;10.956;2022-08-19T11:25:29;16.13;;;13.13;;
20154;SDS011;10238;49.556;10.956;2022-08-19T11:28:18;15.15;;;12.98;;
20154;SDS011;10238;49.556;10.956;2022-08-19T11:31:09;13.80;;;11.75;;
20154;SDS011;10238;49.556;10.956;2022-08-19T11:34:01;15.90;;;12.45;;
20154;SDS011;10238;49.556;10.956;2022-08-19T11:36:53;17.48;;;12.85;;
20154;SDS011;10238;49.556;10.956;2022-08-19T11:39:46;18.27;;;12.98;;
20154;SDS011;10238;49.556;10.956;2022-08-19T11:42:41;16.35;;;13.38;;
20154;SDS011;10238;49.556;10.956;2022-08-19T11:45:45;16.13;;;12.75;;
20154;SDS011;10238;49.556;10.956;2022-08-19T11:48:35;14.93;;;12.57;;
20154;SDS011;10238;49.556;10.956;2022-08-19T11:51:33;13.80;;;12.32;;
20154;SDS011;10238;49.556;10.956;2022-08-19T11:54:25;14.02;;;12.10;;
20154;SDS011;10238;49.556;10.956;2022-08-19T11:57:14;13.05;;;11.65;;
20154;SDS011;10238;49.556;10.956;2022-08-19T12:00:06;15.45;;;12.02;;
20154;SDS011;10238;49.556;10.956;2022-08-19T12:02:57;13.50;;;11.63;;
20154;SDS011;10238;49.556;10.956;2022-08-19T12:05:47;13.82;;;12.38;;
20154;SDS011;10238;49.556;10.956;2022-08-19T12:08:37;15.70;;;13.93;;
20154;SDS011;10238;49.556;10.956;2022-08-19T12:11:27;15.68;;;13.20;;
20154;SDS011;10238;49.556;10.956;2022-08-19T12:14:27;14.65;;;12.95;;
20154;SDS011;10238;49.556;10.956;2022-08-19T12:17:21;21.73;;;14.45;;
20154;SDS011;10238;49.556;10.956;2022-08-19T12:20:15;17.45;;;14.32;;
20154;SDS011;10238;49.556;10.956;2022-08-19T12:23:05;24.67;;;20.92;;
20154;SDS011;10238;49.556;10.956;2022-08-19T12:25:59;29.60;;;25.77;;
20154;SDS011;10238;49.556;10.956;2022-08-19T12:28:48;30.60;;;27.65;;
20154;SDS011;10238;49.556;10.956;2022-08-19T12:31:40;28.73;;;23.80;;
20154;SDS011;10238;49.556;10.956;2022-08-19T12:34:34;29.05;;;26.17;;
20154;SDS011;10238;49.556;10.956;2022-08-19T12:37:24;33.95;;;30.98;;
20154;SDS011;10238;49.556;10.956;2022-08-19T12:40:14;32.40;;;29.60;;
20154;SDS011;10238;49.556;10.956;2022-08-19T12:43:05;31.23;;;28.33;;
20154;SDS011;10238;49.556;10.956;2022-08-19T12:45:55;29.25;;;26.63;;
20154;SDS011;10238;49.556;10.956;2022-08-19T12:48:44;27.85;;;25.05;;
20154;SDS011;10238;49.556;10.956;2022-08-19T12:51:41;26.30;;;23.77;;
20154;SDS011;10238;49.556;10.956;2022-08-19T12:54:31;26.40;;;23.98;;
20154;SDS011;10238;49.556;10.956;2022-08-19T12:57:21;30.52;;;27.85;;
20154;SDS011;10238;49.556;10.956;2022-08-19T13:00:20;26.65;;;24.15;;
20154;SDS011;10238;49.556;10.956;2022-08-19T13:03:10;25.90;;;21.88;;
20154;SDS011;10238;49.556;10.956;2022-08-19T13:06:00;27.48;;;24.48;;
20154;SDS011;10238;49.556;10.956;2022-08-19T13:08:51;24.13;;;21.73;;
20154;SDS011;10238;49.556;10.956;2022-08-19T13:11:45;23.23;;;20.85;;
20154;SDS011;10238;49.556;10.956;2022-08-19T13:14:35;22.98;;;20.50;;
20154;SDS011;10238;49.556;10.956;2022-08-19T13:17:25;23.50;;;19.75;;
20154;SDS011;10238;49.556;10.956;2022-08-19T13:20:15;21.25;;;18.02;;
20154;SDS011;10238;49.556;10.956;2022-08-19T13:23:08;22.00;;;19.25;;
20154;SDS011;10238;49.556;10.956;2022-08-19T13:26:00;21.10;;;18.40;;
20154;SDS011;10238;49.556;10.956;2022-08-19T13:28:52;23.90;;;19.02;;
20154;SDS011;10238;49.556;10.956;2022-08-19T13:32:01;23.77;;;18.58;;
20154;SDS011;10238;49.556;10.956;2022-08-19T13:35:10;26.65;;;19.60;;
20154;SDS011;10238;49.556;10.956;2022-08-19T13:38:03;28.13;;;19.88;;
20154;SDS011;10238;49.556;10.956;2022-08-19T13:41:03;24.15;;;19.83;;
20154;SDS011;10238;49.556;10.956;2022-08-19T13:44:00;23.55;;;18.73;;
20154;SDS011;10238;49.556;10.956;2022-08-19T13:46:54;22.00;;;18.85;;
20154;SDS011;10238;49.556;10.956;2022-08-19T13:49:52;24.80;;;19.27;;
20154;SDS011;10238;49.556;10.956;2022-08-19T13:52:42;23.63;;;18.77;;
20154;SDS011;10238;49.556;10.956;2022-08-19T13:55:32;22.05;;;17.63;;
20154;SDS011;10238;49.556;10.956;2022-08-19T13:58:24;23.55;;;17.90;;
20154;SDS011;10238;49.556;10.956;2022-08-19T14:01:18;21.90;;;18.73;;
20154;SDS011;10238;49.556;10.956;2022-08-19T14:04:12;21.05;;;18.35;;
20154;SDS011;10238;49.556;10.956;2022-08-19T14:07:02;19.88;;;17.20;;
20154;SDS011;10238;49.556;10.956;2022-08-19T14:09:52;22.08;;;17.50;;
20154;SDS011;10238;49.556;10.956;2022-08-19T14:12:41;21.98;;;18.15;;
20154;SDS011;10238;49.556;10.956;2022-08-19T14:15:33;25.85;;;18.33;;
20154;SDS011;10238;49.556;10.956;2022-08-19T14:18:24;20.33;;;15.93;;
20154;SDS011;10238;49.556;10.956;2022-08-19T14:21:17;20.23;;;15.55;;
20154;SDS011;10238;49.556;10.956;2022-08-19T14:24:12;18.00;;;15.30;;
20154;SDS011;10238;49.556;10.956;2022-08-19T14:27:01;18.52;;;14.73;;
20154;SDS011;10238;49.556;10.956;2022-08-19T14:29:51;16.05;;;13.18;;
20154;SDS011;10238;49.556;10.956;2022-08-19T14:32:43;15.82;;;13.23;;
20154;SDS011;10238;49.556;10.956;2022-08-19T14:35:33;15.68;;;12.52;;
20154;SDS011;10238;49.556;10.956;2022-08-19T14:38:23;17.13;;;12.77;;
20154;SDS011;10238;49.556;10.956;2022-08-19T14:41:18;13.60;;;11.23;;
20154;SDS011;10238;49.556;10.956;2022-08-19T14:44:10;15.27;;;11.38;;
20154;SDS011;10238;49.556;10.956;2022-08-19T14:47:00;12.32;;;10.60;;
20154;SDS011;10238;49.556;10.956;2022-08-19T14:49:51;11.88;;;10.38;;
20154;SDS011;10238;49.556;10.956;2022-08-19T14:52:40;12.13;;;10.40;;
20154;SDS011;10238;49.556;10.956;2022-08-19T14:55:30;10.90;;;9.70;;
20154;SDS011;10238;49.556;10.956;2022-08-19T14:58:23;10.55;;;9.32;;
20154;SDS011;10238;49.556;10.956;2022-08-19T15:01:16;12.13;;;9.48;;
20154;SDS011;10238;49.556;10.956;2022-08-19T15:04:08;9.48;;;8.48;;
20154;SDS011;10238;49.556;10.956;2022-08-19T15:06:58;10.07;;;8.90;;
20154;SDS011;10238;49.556;10.956;2022-08-19T15:09:51;10.13;;;9.07;;
20154;SDS011;10238;49.556;10.956;2022-08-19T15:12:40;10.30;;;9.18;;
20154;SDS011;10238;49.556;10.956;2022-08-19T15:15:35;11.18;;;8.85;;
20154;SDS011;10238;49.556;10.956;2022-08-19T15:18:26;10.00;;;8.60;;
20154;SDS011;10238;49.556;10.956;2022-08-19T15:21:15;12.02;;;8.40;;
20154;SDS011;10238;49.556;10.956;2022-08-19T15:24:15;9.73;;;7.70;;
20154;SDS011;10238;49.556;10.956;2022-08-19T15:27:04;9.38;;;8.50;;
20154;SDS011;10238;49.556;10.956;2022-08-19T15:29:54;9.93;;;8.20;;
20154;SDS011;10238;49.556;10.956;2022-08-19T15:32:48;8.43;;;7.60;;
20154;SDS011;10238;49.556;10.956;2022-08-19T15:35:39;8.80;;;7.70;;
20154;SDS011;10238;49.556;10.956;2022-08-19T15:38:29;9.82;;;7.63;;
20154;SDS011;10238;49.556;10.956;2022-08-19T15:41:28;7.65;;;6.95;;
20154;SDS011;10238;49.556;10.956;2022-08-19T15:44:19;7.63;;;6.93;;
20154;SDS011;10238;49.556;10.956;2022-08-19T15:47:09;11.82;;;7.53;;
20154;SDS011;10238;49.556;10.956;2022-08-19T15:49:58;8.98;;;7.72;;
20154;SDS011;10238;49.556;10.956;2022-08-19T15:52:48;9.73;;;7.68;;
20154;SDS011;10238;49.556;10.956;2022-08-19T15:58:35;9.52;;;7.40;;
20154;SDS011;10238;49.556;10.956;2022-08-19T16:01:42;9.82;;;7.18;;
20154;SDS011;10238;49.556;10.956;2022-08-19T16:05:04;9.55;;;7.50;;
20154;SDS011;10238;49.556;10.956;2022-08-19T16:08:14;11.25;;;7.53;;
20154;SDS011;10238;49.556;10.956;2022-08-19T16:11:03;10.73;;;8.55;;
20154;SDS011;10238;49.556;10.956;2022-08-19T16:13:54;14.10;;;8.70;;
20154;SDS011;10238;49.556;10.956;2022-08-19T16:19:34;10.43;;;8.10;;
20154;SDS011;10238;49.556;10.956;2022-08-19T16:22:27;8.60;;;7.55;;
20154;SDS011;10238;49.556;10.956;2022-08-19T16:25:17;11.23;;;7.60;;
20154;SDS011;10238;49.556;10.956;2022-08-19T16:28:08;10.43;;;7.93;;
20154;SDS011;10238;49.556;10.956;2022-08-19T16:30:59;9.98;;;8.20;;
20154;SDS011;10238;49.556;10.956;2022-08-19T16:33:48;9.88;;;7.28;;
20154;SDS011;10238;49.556;10.956;2022-08-19T16:36:38;8.23;;;7.30;;
20154;SDS011;10238;49.556;10.956;2022-08-19T16:39:29;8.40;;;7.35;;
20154;SDS011;10238;49.556;10.956;2022-08-19T16:42:19;8.93;;;6.95;;
20154;SDS011;10238;49.556;10.956;2022-08-19T16:45:09;8.20;;;7.40;;
20154;SDS011;10238;49.556;10.956;2022-08-19T16:48:00;8.38;;;7.53;;
20154;SDS011;10238;49.556;10.956;2022-08-19T16:50:50;8.73;;;7.57;;
20154;SDS011;10238;49.556;10.956;2022-08-19T16:53:41;7.43;;;6.57;;
20154;SDS011;10238;49.556;10.956;2022-08-19T16:56:32;8.93;;;7.65;;
20154;SDS011;10238;49.556;10.956;2022-08-19T16:59:21;8.40;;;6.55;;